createdAt,value
2016-06-19T00:00:14.027Z,0
2016-06-19T00:01:12.718Z,0
2016-06-19T00:02:13.346Z,0
2016-06-19T00:03:12.694Z,0
2016-06-19T00:04:12.681Z,0
2016-06-19T00:05:13.310Z,0
2016-06-19T00:06:13.298Z,0
2016-06-19T00:07:13.302Z,0
2016-06-19T00:08:13.289Z,0
2016-06-19T00:09:14.558Z,0
2016-06-19T00:10:13.891Z,0
2016-06-19T00:11:14.533Z,0
2016-06-19T00:12:13.850Z,0
2016-06-19T00:13:13.182Z,0
2016-06-19T00:14:12.529Z,0
2016-06-19T00:15:13.158Z,0
2016-06-19T00:16:13.145Z,0
2016-06-19T00:17:12.476Z,0
2016-06-19T00:18:13.121Z,0
2016-06-19T00:19:13.765Z,0
2016-06-19T00:20:13.097Z,0
2016-06-19T00:21:12.429Z,0
2016-06-19T00:22:13.088Z,0
2016-06-19T00:23:13.700Z,0
2016-06-19T00:24:13.032Z,0
2016-06-19T00:25:13.020Z,0
2016-06-19T00:26:13.649Z,0
2016-06-19T00:27:12.386Z,0
2016-06-19T00:28:11.687Z,0
2016-06-19T00:29:13.611Z,0
2016-06-19T00:30:13.599Z,0
2016-06-19T00:31:12.307Z,0
2016-06-19T00:32:12.278Z,0
2016-06-19T00:33:12.892Z,0
2016-06-19T00:34:14.207Z,0
2016-06-19T00:35:12.242Z,0
2016-06-19T00:36:11.574Z,0
2016-06-19T00:37:11.562Z,0
2016-06-19T00:38:13.487Z,0
2016-06-19T00:39:13.490Z,0
2016-06-19T00:40:12.150Z,0
2016-06-19T00:41:12.153Z,0
2016-06-19T00:42:12.798Z,0
2016-06-19T00:43:13.489Z,0
2016-06-19T00:44:12.742Z,0
2016-06-19T00:45:12.090Z,0
2016-06-19T00:46:12.749Z,0
2016-06-19T00:47:12.705Z,0
2016-06-19T00:48:12.068Z,0
2016-06-19T00:49:13.369Z,0
2016-06-19T00:50:12.013Z,0
2016-06-19T00:51:12.001Z,0
2016-06-19T00:52:11.989Z,0
2016-06-19T00:53:13.929Z,0
2016-06-19T00:54:12.604Z,0
2016-06-19T00:55:11.295Z,0
2016-06-19T00:56:11.283Z,0
2016-06-19T00:57:11.943Z,0
2016-06-19T00:58:13.212Z,0
2016-06-19T00:59:13.872Z,0
2016-06-19T01:00:11.875Z,0
2016-06-19T01:01:11.864Z,0
2016-06-19T01:02:12.507Z,0
2016-06-19T01:03:11.839Z,0
2016-06-19T01:04:13.139Z,0
2016-06-19T01:05:11.799Z,0
2016-06-19T01:06:11.146Z,0
2016-06-19T01:07:12.431Z,0
2016-06-19T01:08:12.402Z,0
2016-06-19T01:09:11.094Z,0
2016-06-19T01:10:11.737Z,0
2016-06-19T01:11:12.398Z,0
2016-06-19T01:12:13.652Z,0
2016-06-19T01:13:11.030Z,0
2016-06-19T01:14:12.377Z,0
2016-06-19T01:15:12.318Z,0
2016-06-19T01:16:11.025Z,0
2016-06-19T01:17:13.591Z,0
2016-06-19T01:18:12.923Z,0
2016-06-19T01:19:13.566Z,0
2016-06-19T01:20:11.601Z,0
2016-06-19T01:21:12.886Z,0
2016-06-19T01:22:12.889Z,0
2016-06-19T01:23:10.907Z,0
2016-06-19T01:24:11.521Z,0
2016-06-19T01:25:11.525Z,0
2016-06-19T01:26:12.153Z,0
2016-06-19T01:27:12.782Z,0
2016-06-19T01:28:12.785Z,0
2016-06-19T01:29:12.116Z,0
2016-06-19T01:30:11.464Z,0
2016-06-19T01:31:12.733Z,0
2016-06-19T01:32:11.424Z,0
2016-06-19T01:33:11.427Z,0
2016-06-19T01:34:11.400Z,0
2016-06-19T01:35:11.387Z,0
2016-06-19T01:36:13.313Z,0
2016-06-19T01:37:12.003Z,0
2016-06-19T01:38:12.006Z,0
2016-06-19T01:39:11.323Z,0
2016-06-19T01:40:12.624Z,0
2016-06-19T01:41:11.939Z,0
2016-06-19T01:42:10.645Z,0
2016-06-19T01:43:11.899Z,0
2016-06-19T01:44:12.559Z,0
2016-06-19T01:45:11.234Z,0
2016-06-19T01:46:12.519Z,0
2016-06-19T01:47:11.850Z,0
2016-06-19T01:48:11.198Z,0
2016-06-19T01:49:12.467Z,0
2016-06-19T01:50:12.470Z,0
2016-06-19T01:51:13.114Z,0
2016-06-19T01:52:11.790Z,0
2016-06-19T01:53:11.122Z,0
2016-06-19T01:54:11.765Z,0
2016-06-19T01:55:11.757Z,0
2016-06-19T01:56:12.390Z,0
2016-06-19T01:57:11.100Z,0
2016-06-19T01:58:12.373Z,0
2016-06-19T01:59:10.410Z,0
2016-06-19T02:00:12.352Z,0
2016-06-19T02:01:11.685Z,0
2016-06-19T02:02:12.314Z,0
2016-06-19T02:03:12.320Z,0
2016-06-19T02:04:10.996Z,0
2016-06-19T02:05:10.985Z,0
2016-06-19T02:06:10.973Z,0
2016-06-19T02:07:10.946Z,0
2016-06-19T02:08:11.606Z,0
2016-06-19T02:09:10.923Z,0
2016-06-19T02:10:12.847Z,0
2016-06-19T02:11:12.211Z,0
2016-06-19T02:12:10.229Z,0
2016-06-19T02:13:11.514Z,0
2016-06-19T02:14:11.486Z,0
2016-06-19T02:15:12.787Z,0
2016-06-19T02:16:11.492Z,0
2016-06-19T02:17:10.168Z,0
2016-06-19T02:18:10.797Z,0
2016-06-19T02:19:12.723Z,0
2016-06-19T02:20:11.413Z,0
2016-06-19T02:21:12.714Z,0
2016-06-19T02:22:11.389Z,0
2016-06-19T02:23:11.377Z,0
2016-06-19T02:24:11.395Z,0
2016-06-19T02:25:10.056Z,0
2016-06-19T02:26:11.310Z,0
2016-06-19T02:27:10.672Z,0
2016-06-19T02:28:11.972Z,0
2016-06-19T02:29:09.992Z,0
2016-06-19T02:30:11.932Z,0
2016-06-19T02:31:11.280Z,0
2016-06-19T02:32:10.580Z,0
2016-06-19T02:33:10.584Z,0
2016-06-19T02:34:12.712Z,0
2016-06-19T02:35:11.856Z,0
2016-06-19T02:36:11.812Z,0
2016-06-19T02:37:10.519Z,0
2016-06-19T02:38:09.929Z,0
2016-06-19T02:39:11.791Z,0
2016-06-19T02:40:11.779Z,0
2016-06-19T02:41:10.470Z,0
2016-06-19T02:42:10.474Z,0
2016-06-19T02:43:11.102Z,0
2016-06-19T02:44:11.090Z,0
2016-06-19T02:45:11.062Z,0
2016-06-19T02:46:10.378Z,0
2016-06-19T02:47:10.397Z,0
2016-06-19T02:48:09.714Z,0
2016-06-19T02:49:10.997Z,0
2016-06-19T02:50:10.329Z,0
2016-06-19T02:51:10.333Z,0
2016-06-19T02:52:10.978Z,0
2016-06-19T02:53:10.292Z,0
2016-06-19T02:54:10.937Z,0
2016-06-19T02:55:12.207Z,0
2016-06-19T02:56:10.256Z,0
2016-06-19T02:57:10.900Z,0
2016-06-19T02:58:10.232Z,0
2016-06-19T02:59:10.846Z,0
2016-06-19T03:00:09.567Z,0
2016-06-19T03:01:11.492Z,0
2016-06-19T03:02:10.184Z,0
2016-06-19T03:03:11.468Z,0
2016-06-19T03:04:10.253Z,0
2016-06-19T03:05:10.116Z,0
2016-06-19T03:06:09.463Z,0
2016-06-19T03:07:10.748Z,0
2016-06-19T03:08:09.439Z,0
2016-06-19T03:09:11.364Z,0
2016-06-19T03:10:10.695Z,0
2016-06-19T03:11:10.699Z,0
2016-06-19T03:12:10.030Z,0
2016-06-19T03:13:11.315Z,0
2016-06-19T03:14:11.991Z,0
2016-06-19T03:15:10.635Z,0
2016-06-19T03:16:09.982Z,0
2016-06-19T03:17:09.954Z,0
2016-06-19T03:18:11.255Z,0
2016-06-19T03:19:11.851Z,0
2016-06-19T03:20:09.918Z,0
2016-06-19T03:21:10.578Z,0
2016-06-19T03:22:10.534Z,0
2016-06-19T03:23:11.178Z,0
2016-06-19T03:24:11.150Z,0
2016-06-19T03:25:10.498Z,0
2016-06-19T03:26:11.110Z,0
2016-06-19T03:27:11.098Z,0
2016-06-19T03:28:11.758Z,0
2016-06-19T03:29:10.417Z,0
2016-06-19T03:30:09.765Z,0
2016-06-19T03:31:10.409Z,0
2016-06-19T03:32:12.724Z,0
2016-06-19T03:33:11.666Z,0
2016-06-19T03:34:09.732Z,0
2016-06-19T03:35:11.657Z,0
2016-06-19T03:36:10.332Z,0
2016-06-19T03:37:10.977Z,0
2016-06-19T03:38:09.683Z,0
2016-06-19T03:39:10.937Z,0
2016-06-19T03:40:10.283Z,0
2016-06-19T03:41:10.272Z,0
2016-06-19T03:42:10.244Z,0
2016-06-19T03:43:10.232Z,0
2016-06-19T03:44:09.563Z,0
2016-06-19T03:45:09.550Z,0
2016-06-19T03:46:10.836Z,0
2016-06-19T03:47:10.840Z,0
2016-06-19T03:48:10.810Z,0
2016-06-19T03:49:10.144Z,0
2016-06-19T03:50:10.131Z,0
2016-06-19T03:51:10.118Z,0
2016-06-19T03:52:10.762Z,0
2016-06-19T03:53:11.392Z,0
2016-06-19T03:54:10.754Z,0
2016-06-19T03:55:09.414Z,0
2016-06-19T03:56:09.386Z,0
2016-06-19T03:57:10.046Z,0
2016-06-19T03:58:10.018Z,0
2016-06-19T03:59:10.662Z,0
2016-06-19T04:00:09.338Z,0
2016-06-19T04:01:08.669Z,0
2016-06-19T04:02:09.953Z,0
2016-06-19T04:03:10.582Z,0
2016-06-19T04:04:09.288Z,0
2016-06-19T04:05:09.917Z,0
2016-06-19T04:06:09.889Z,0
2016-06-19T04:07:11.190Z,0
2016-06-19T04:08:09.880Z,0
2016-06-19T04:09:08.588Z,0
2016-06-19T04:10:09.841Z,0
2016-06-19T04:11:10.501Z,0
2016-06-19T04:12:09.850Z,0
2016-06-19T04:13:09.824Z,0
2016-06-19T04:14:09.797Z,0
2016-06-19T04:15:10.427Z,0
2016-06-19T04:16:09.760Z,0
2016-06-19T04:17:10.405Z,0
2016-06-19T04:18:09.738Z,0
2016-06-19T04:19:09.069Z,0
2016-06-19T04:20:09.715Z,0
2016-06-19T04:21:10.359Z,0
2016-06-19T04:22:09.690Z,0
2016-06-19T04:23:09.693Z,0
2016-06-19T04:24:09.026Z,0
2016-06-19T04:25:08.998Z,0
2016-06-19T04:26:09.626Z,0
2016-06-19T04:27:10.926Z,0
2016-06-19T04:28:08.961Z,0
2016-06-19T04:29:10.246Z,0
2016-06-19T04:30:09.593Z,0
2016-06-19T04:31:09.565Z,0
2016-06-19T04:32:10.209Z,0
2016-06-19T04:33:08.260Z,0
2016-06-19T04:34:08.889Z,0
2016-06-19T04:35:10.142Z,0
2016-06-19T04:36:10.129Z,0
2016-06-19T04:37:10.758Z,0
2016-06-19T04:38:08.825Z,0
2016-06-19T04:39:09.436Z,0
2016-06-19T04:40:08.159Z,0
2016-06-19T04:41:10.053Z,0
2016-06-19T04:42:09.384Z,0
2016-06-19T04:43:08.732Z,0
2016-06-19T04:44:09.377Z,0
2016-06-19T04:45:10.004Z,0
2016-06-19T04:46:09.992Z,0
2016-06-19T04:47:09.340Z,0
2016-06-19T04:48:09.327Z,0
2016-06-19T04:49:09.299Z,0
2016-06-19T04:50:09.944Z,0
2016-06-19T04:51:08.634Z,0
2016-06-19T04:52:08.607Z,0
2016-06-19T04:53:09.891Z,0
2016-06-19T04:54:09.238Z,0
2016-06-19T04:55:09.867Z,0
2016-06-19T04:56:07.902Z,0
2016-06-19T04:57:08.546Z,0
2016-06-19T04:58:09.174Z,0
2016-06-19T04:59:10.459Z,0
2016-06-19T05:00:09.790Z,0
2016-06-19T05:01:08.482Z,0
2016-06-19T05:02:08.454Z,0
2016-06-19T05:03:09.098Z,0
2016-06-19T05:04:09.742Z,0
2016-06-19T05:05:08.433Z,0
2016-06-19T05:06:08.421Z,0
2016-06-19T05:07:09.050Z,0
2016-06-19T05:08:08.381Z,0
2016-06-19T05:09:07.712Z,0
2016-06-19T05:10:09.669Z,0
2016-06-19T05:11:07.689Z,0
2016-06-19T05:12:08.988Z,0
2016-06-19T05:13:08.335Z,0
2016-06-19T05:14:09.605Z,0
2016-06-19T05:15:09.592Z,0
2016-06-19T05:16:09.565Z,0
2016-06-19T05:17:08.255Z,5
2016-06-19T05:18:07.619Z,5
2016-06-19T05:19:09.512Z,5
2016-06-19T05:20:09.500Z,5
2016-06-19T05:21:08.848Z,5
2016-06-19T05:22:08.195Z,5
2016-06-19T05:23:08.151Z,5
2016-06-19T05:24:09.468Z,5
2016-06-19T05:25:08.799Z,5
2016-06-19T05:26:08.130Z,5
2016-06-19T05:27:08.759Z,10
2016-06-19T05:28:08.747Z,10
2016-06-19T05:29:08.735Z,10
2016-06-19T05:30:08.707Z,10
2016-06-19T05:31:08.069Z,10
2016-06-19T05:32:09.996Z,10
2016-06-19T05:33:08.670Z,10
2016-06-19T05:34:09.330Z,10
2016-06-19T05:35:09.318Z,10
2016-06-19T05:36:08.650Z,15
2016-06-19T05:37:07.966Z,15
2016-06-19T05:38:08.609Z,15
2016-06-19T05:39:09.925Z,15
2016-06-19T05:40:08.570Z,15
2016-06-19T05:41:07.261Z,15
2016-06-19T05:42:09.201Z,15
2016-06-19T05:43:09.862Z,15
2016-06-19T05:44:07.864Z,15
2016-06-19T05:45:07.868Z,20
2016-06-19T05:46:08.512Z,20
2016-06-19T05:47:08.469Z,20
2016-06-19T05:48:09.098Z,20
2016-06-19T05:49:09.115Z,20
2016-06-19T05:50:09.073Z,20
2016-06-19T05:51:09.077Z,20
2016-06-19T05:52:09.096Z,20
2016-06-19T05:53:09.051Z,20
2016-06-19T05:54:09.041Z,20
2016-06-19T05:55:07.074Z,20
2016-06-19T05:56:08.359Z,25
2016-06-19T05:57:07.723Z,25
2016-06-19T05:58:08.319Z,25
2016-06-19T05:59:09.620Z,25
2016-06-19T06:00:07.638Z,25
2016-06-19T06:01:08.298Z,25
2016-06-19T06:02:09.552Z,25
2016-06-19T06:03:08.899Z,25
2016-06-19T06:04:07.574Z,25
2016-06-19T06:05:08.875Z,25
2016-06-19T06:06:08.190Z,25
2016-06-19T06:07:08.850Z,30
2016-06-19T06:08:08.823Z,30
2016-06-19T06:09:08.154Z,30
2016-06-19T06:10:06.845Z,30
2016-06-19T06:11:08.146Z,30
2016-06-19T06:12:08.103Z,30
2016-06-19T06:13:08.746Z,30
2016-06-19T06:14:06.797Z,30
2016-06-19T06:15:06.785Z,30
2016-06-19T06:16:06.756Z,30
2016-06-19T06:17:07.401Z,30
2016-06-19T06:18:08.701Z,30
2016-06-19T06:19:06.719Z,30
2016-06-19T06:20:09.317Z,35
2016-06-19T06:21:07.336Z,35
2016-06-19T06:22:07.980Z,35
2016-06-19T06:23:07.312Z,35
2016-06-19T06:24:07.956Z,35
2016-06-19T06:25:08.601Z,35
2016-06-19T06:26:07.915Z,35
2016-06-19T06:27:07.904Z,35
2016-06-19T06:28:07.898Z,35
2016-06-19T06:29:07.891Z,35
2016-06-19T06:30:07.261Z,35
2016-06-19T06:31:09.176Z,35
2016-06-19T06:32:07.231Z,35
2016-06-19T06:33:07.846Z,35
2016-06-19T06:34:07.196Z,35
2016-06-19T06:35:08.483Z,35
2016-06-19T06:36:08.521Z,35
2016-06-19T06:37:09.119Z,35
2016-06-19T06:38:07.170Z,35
2016-06-19T06:39:07.144Z,40
2016-06-19T06:40:07.117Z,40
2016-06-19T06:41:08.402Z,40
2016-06-19T06:42:07.751Z,40
2016-06-19T06:43:09.003Z,40
2016-06-19T06:44:06.413Z,40
2016-06-19T06:45:07.713Z,40
2016-06-19T06:46:08.983Z,40
2016-06-19T06:47:07.033Z,40
2016-06-19T06:48:07.661Z,40
2016-06-19T06:49:07.009Z,40
2016-06-19T06:50:08.309Z,40
2016-06-19T06:51:08.265Z,40
2016-06-19T06:52:06.957Z,40
2016-06-19T06:53:07.600Z,45
2016-06-19T06:54:06.276Z,45
2016-06-19T06:55:08.232Z,45
2016-06-19T06:56:08.205Z,45
2016-06-19T06:57:06.880Z,45
2016-06-19T06:58:06.868Z,45
2016-06-19T06:59:08.168Z,45
2016-06-19T07:00:07.500Z,45
2016-06-19T07:01:07.488Z,45
2016-06-19T07:02:06.819Z,45
2016-06-19T07:03:06.807Z,45
2016-06-19T07:04:07.419Z,45
2016-06-19T07:05:06.767Z,45
2016-06-19T07:06:07.458Z,50
2016-06-19T07:07:07.384Z,50
2016-06-19T07:08:06.731Z,50
2016-06-19T07:09:07.358Z,50
2016-06-19T07:10:08.659Z,50
2016-06-19T07:11:08.631Z,50
2016-06-19T07:12:06.682Z,50
2016-06-19T07:13:06.655Z,50
2016-06-19T07:14:07.298Z,50
2016-06-19T07:15:06.661Z,50
2016-06-19T07:16:07.929Z,50
2016-06-19T07:17:05.933Z,50
2016-06-19T07:18:07.250Z,50
2016-06-19T07:19:08.534Z,55
2016-06-19T07:20:06.569Z,55
2016-06-19T07:21:06.542Z,55
2016-06-19T07:22:07.185Z,55
2016-06-19T07:23:07.814Z,55
2016-06-19T07:24:07.801Z,55
2016-06-19T07:25:07.149Z,55
2016-06-19T07:26:06.480Z,55
2016-06-19T07:27:05.843Z,55
2016-06-19T07:28:06.488Z,55
2016-06-19T07:29:08.396Z,55
2016-06-19T07:30:07.088Z,55
2016-06-19T07:31:07.060Z,55
2016-06-19T07:32:06.438Z,55
2016-06-19T07:33:07.036Z,55
2016-06-19T07:34:07.008Z,55
2016-06-19T07:35:07.668Z,55
2016-06-19T07:36:05.702Z,55
2016-06-19T07:37:07.674Z,60
2016-06-19T07:38:08.256Z,60
2016-06-19T07:39:07.619Z,60
2016-06-19T07:40:06.935Z,60
2016-06-19T07:41:06.938Z,60
2016-06-19T07:42:06.301Z,60
2016-06-19T07:43:06.258Z,60
2016-06-19T07:44:06.245Z,60
2016-06-19T07:45:06.233Z,60
2016-06-19T07:46:06.878Z,60
2016-06-19T07:47:06.850Z,60
2016-06-19T07:48:06.854Z,60
2016-06-19T07:49:07.482Z,60
2016-06-19T07:50:05.532Z,60
2016-06-19T07:51:06.128Z,60
2016-06-19T07:52:06.773Z,65
2016-06-19T07:53:07.418Z,65
2016-06-19T07:54:06.108Z,65
2016-06-19T07:55:07.393Z,65
2016-06-19T07:56:07.396Z,65
2016-06-19T07:57:06.713Z,65
2016-06-19T07:58:05.388Z,65
2016-06-19T07:59:06.689Z,65
2016-06-19T08:00:06.004Z,65
2016-06-19T08:01:07.945Z,65
2016-06-19T08:02:07.292Z,65
2016-06-19T08:03:05.342Z,65
2016-06-19T08:04:05.315Z,65
2016-06-19T08:05:05.974Z,70
2016-06-19T08:06:07.884Z,70
2016-06-19T08:07:07.217Z,70
2016-06-19T08:08:06.547Z,70
2016-06-19T08:09:05.927Z,70
2016-06-19T08:10:06.538Z,70
2016-06-19T08:11:07.183Z,70
2016-06-19T08:12:07.811Z,70
2016-06-19T08:13:05.846Z,70
2016-06-19T08:14:05.850Z,70
2016-06-19T08:15:06.462Z,70
2016-06-19T08:16:05.810Z,70
2016-06-19T08:17:07.109Z,70
2016-06-19T08:18:05.800Z,75
2016-06-19T08:19:06.414Z,75
2016-06-19T08:20:06.401Z,75
2016-06-19T08:21:07.702Z,75
2016-06-19T08:22:07.018Z,75
2016-06-19T08:23:05.068Z,75
2016-06-19T08:24:05.071Z,75
2016-06-19T08:25:05.699Z,75
2016-06-19T08:26:05.672Z,75
2016-06-19T08:27:05.660Z,75
2016-06-19T08:28:06.304Z,75
2016-06-19T08:29:06.917Z,75
2016-06-19T08:30:07.577Z,75
2016-06-19T08:31:06.283Z,75
2016-06-19T08:32:05.615Z,75
2016-06-19T08:33:04.931Z,80
2016-06-19T08:34:06.872Z,80
2016-06-19T08:35:07.531Z,80
2016-06-19T08:36:05.550Z,80
2016-06-19T08:37:06.195Z,80
2016-06-19T08:38:07.463Z,80
2016-06-19T08:39:05.514Z,80
2016-06-19T08:40:05.487Z,80
2016-06-19T08:41:06.115Z,80
2016-06-19T08:42:05.493Z,80
2016-06-19T08:43:06.761Z,80
2016-06-19T08:44:06.752Z,80
2016-06-19T08:45:06.728Z,80
2016-06-19T08:46:05.421Z,80
2016-06-19T08:47:05.411Z,80
2016-06-19T08:48:06.058Z,80
2016-06-19T08:49:06.032Z,85
2016-06-19T08:50:06.020Z,85
2016-06-19T08:51:05.385Z,85
2016-06-19T08:52:06.029Z,85
2016-06-19T08:53:06.644Z,85
2016-06-19T08:54:07.304Z,85
2016-06-19T08:55:05.980Z,85
2016-06-19T08:56:05.327Z,85
2016-06-19T08:57:05.940Z,85
2016-06-19T08:58:06.585Z,85
2016-06-19T08:59:05.917Z,85
2016-06-19T09:00:05.249Z,85
2016-06-19T09:01:05.908Z,85
2016-06-19T09:02:05.881Z,85
2016-06-19T09:03:06.524Z,85
2016-06-19T09:04:05.871Z,85
2016-06-19T09:05:05.859Z,90
2016-06-19T09:06:05.175Z,90
2016-06-19T09:07:07.148Z,90
2016-06-19T09:08:05.807Z,90
2016-06-19T09:09:04.498Z,90
2016-06-19T09:10:05.783Z,90
2016-06-19T09:11:04.470Z,90
2016-06-19T09:12:05.102Z,85
2016-06-19T09:13:06.402Z,85
2016-06-19T09:14:05.734Z,85
2016-06-19T09:15:05.065Z,85
2016-06-19T09:16:05.726Z,85
2016-06-19T09:17:06.995Z,85
2016-06-19T09:18:06.342Z,85
2016-06-19T09:19:05.674Z,85
2016-06-19T09:20:06.318Z,90
2016-06-19T09:21:05.634Z,90
2016-06-19T09:22:06.292Z,90
2016-06-19T09:23:06.265Z,90
2016-06-19T09:24:04.968Z,90
2016-06-19T09:25:04.956Z,90
2016-06-19T09:26:04.928Z,90
2016-06-19T09:27:06.217Z,95
2016-06-19T09:28:05.580Z,90
2016-06-19T09:29:04.893Z,90
2016-06-19T09:30:06.195Z,90
2016-06-19T09:31:06.231Z,90
2016-06-19T09:32:04.871Z,95
2016-06-19T09:33:04.860Z,95
2016-06-19T09:34:04.847Z,95
2016-06-19T09:35:05.492Z,95
2016-06-19T09:36:06.779Z,95
2016-06-19T09:37:04.138Z,95
2016-06-19T09:38:05.438Z,95
2016-06-19T09:39:05.442Z,95
2016-06-19T09:40:06.745Z,95
2016-06-19T09:41:06.077Z,95
2016-06-19T09:42:04.733Z,95
2016-06-19T09:43:04.081Z,100
2016-06-19T09:44:06.006Z,100
2016-06-19T09:45:05.354Z,100
2016-06-19T09:46:05.326Z,100
2016-06-19T09:47:04.689Z,100
2016-06-19T09:48:05.317Z,100
2016-06-19T09:49:05.289Z,100
2016-06-19T09:50:04.636Z,100
2016-06-19T09:51:05.936Z,100
2016-06-19T09:52:05.925Z,105
2016-06-19T09:53:03.944Z,105
2016-06-19T09:54:05.885Z,105
2016-06-19T09:55:05.888Z,105
2016-06-19T09:56:04.579Z,105
2016-06-19T09:57:04.582Z,105
2016-06-19T09:58:05.883Z,105
2016-06-19T09:59:04.527Z,110
2016-06-19T10:00:06.484Z,110
2016-06-19T10:01:03.878Z,110
2016-06-19T10:02:06.459Z,110
2016-06-19T10:03:05.150Z,110
2016-06-19T10:04:05.139Z,110
2016-06-19T10:05:05.126Z,115
2016-06-19T10:06:05.129Z,115
2016-06-19T10:07:05.742Z,115
2016-06-19T10:08:05.745Z,115
2016-06-19T10:09:05.734Z,115
2016-06-19T10:10:05.705Z,115
2016-06-19T10:11:05.053Z,120
2016-06-19T10:12:05.712Z,120
2016-06-19T10:13:06.325Z,120
2016-06-19T10:14:04.360Z,120
2016-06-19T10:15:04.363Z,125
2016-06-19T10:16:04.351Z,125
2016-06-19T10:17:04.323Z,125
2016-06-19T10:18:04.968Z,125
2016-06-19T10:19:04.315Z,125
2016-06-19T10:20:04.287Z,125
2016-06-19T10:21:04.947Z,125
2016-06-19T10:22:04.935Z,125
2016-06-19T10:23:04.297Z,125
2016-06-19T10:24:05.551Z,130
2016-06-19T10:25:05.554Z,130
2016-06-19T10:26:03.589Z,130
2016-06-19T10:27:04.874Z,130
2016-06-19T10:28:05.517Z,135
2016-06-19T10:29:04.865Z,135
2016-06-19T10:30:05.493Z,135
2016-06-19T10:31:03.513Z,140
2016-06-19T10:32:05.454Z,140
2016-06-19T10:33:05.457Z,145
2016-06-19T10:34:04.149Z,145
2016-06-19T10:35:04.136Z,145
2016-06-19T10:36:04.124Z,150
2016-06-19T10:37:06.081Z,155
2016-06-19T10:38:04.115Z,150
2016-06-19T10:39:04.102Z,155
2016-06-19T10:40:05.388Z,155
2016-06-19T10:41:06.016Z,155
2016-06-19T10:42:04.051Z,155
2016-06-19T10:43:04.070Z,155
2016-06-19T10:44:03.417Z,155
2016-06-19T10:45:04.702Z,155
2016-06-19T10:46:04.017Z,155
2016-06-19T10:47:05.302Z,155
2016-06-19T10:48:05.290Z,155
2016-06-19T10:49:03.981Z,155
2016-06-19T10:50:05.313Z,155
2016-06-19T10:51:05.269Z,160
2016-06-19T10:52:05.258Z,160
2016-06-19T10:53:03.963Z,160
2016-06-19T10:54:04.593Z,160
2016-06-19T10:55:05.877Z,160
2016-06-19T10:56:03.911Z,160
2016-06-19T10:57:04.555Z,160
2016-06-19T10:58:04.575Z,160
2016-06-19T10:59:05.172Z,160
2016-06-19T11:00:05.847Z,160
2016-06-19T11:01:03.882Z,160
2016-06-19T11:02:03.872Z,160
2016-06-19T11:03:03.846Z,160
2016-06-19T11:04:03.226Z,165
2016-06-19T11:05:05.809Z,155
2016-06-19T11:06:03.172Z,155
2016-06-19T11:07:03.832Z,155
2016-06-19T11:08:05.758Z,155
2016-06-19T11:09:04.450Z,155
2016-06-19T11:10:04.422Z,155
2016-06-19T11:11:05.083Z,155
2016-06-19T11:12:03.774Z,155
2016-06-19T11:13:05.044Z,155
2016-06-19T11:14:05.047Z,155
2016-06-19T11:15:05.036Z,155
2016-06-19T11:16:04.399Z,155
2016-06-19T11:17:05.027Z,155
2016-06-19T11:18:05.031Z,155
2016-06-19T11:19:04.362Z,155
2016-06-19T11:20:03.694Z,155
2016-06-19T11:21:04.353Z,155
2016-06-19T11:22:05.623Z,155
2016-06-19T11:23:04.329Z,155
2016-06-19T11:24:03.677Z,155
2016-06-19T11:25:04.305Z,155
2016-06-19T11:26:04.292Z,155
2016-06-19T11:27:03.640Z,155
2016-06-19T11:28:04.941Z,155
2016-06-19T11:29:04.912Z,150
2016-06-19T11:30:04.915Z,150
2016-06-19T11:31:04.247Z,150
2016-06-19T11:32:04.907Z,150
2016-06-19T11:33:04.239Z,155
2016-06-19T11:34:04.242Z,160
2016-06-19T11:35:04.917Z,375
2016-06-19T11:36:04.202Z,475
2016-06-19T11:37:04.846Z,310
2016-06-19T11:38:04.850Z,240
2016-06-19T11:39:04.181Z,165
2016-06-19T11:40:04.185Z,165
2016-06-19T11:41:04.828Z,530
2016-06-19T11:42:05.472Z,1635
2016-06-19T11:43:05.446Z,2445
2016-06-19T11:44:04.839Z,2480
2016-06-19T11:45:04.170Z,2385
2016-06-19T11:46:04.128Z,2270
2016-06-19T11:47:03.506Z,2390
2016-06-19T11:48:04.150Z,2445
2016-06-19T11:49:04.153Z,2435
2016-06-19T11:50:04.141Z,2435
2016-06-19T11:51:03.488Z,2250
2016-06-19T11:52:03.491Z,2240
2016-06-19T11:53:04.791Z,2400
2016-06-19T11:54:04.140Z,2390
2016-06-19T11:55:04.143Z,2410
2016-06-19T11:56:03.491Z,2415
2016-06-19T11:57:04.791Z,2345
2016-06-19T11:58:04.170Z,2400
2016-06-19T11:59:03.484Z,2475
2016-06-19T12:00:04.113Z,2440
2016-06-19T12:01:04.789Z,2405
2016-06-19T12:02:03.479Z,2515
2016-06-19T12:03:04.123Z,2495
2016-06-19T12:04:04.143Z,2490
2016-06-19T12:05:04.803Z,2400
2016-06-19T12:06:05.431Z,2425
2016-06-19T12:07:05.450Z,2490
2016-06-19T12:08:05.454Z,2475
2016-06-19T12:09:04.145Z,2395
2016-06-19T12:10:04.803Z,2380
2016-06-19T12:11:04.167Z,2285
2016-06-19T12:12:03.513Z,2170
2016-06-19T12:13:03.503Z,2220
2016-06-19T12:14:04.803Z,2485
2016-06-19T12:15:04.821Z,2540
2016-06-19T12:16:04.824Z,2415
2016-06-19T12:17:04.188Z,2290
2016-06-19T12:18:04.191Z,2335
2016-06-19T12:19:04.820Z,2130
2016-06-19T12:20:05.510Z,1500
2016-06-19T12:21:05.483Z,865
2016-06-19T12:22:03.565Z,610
2016-06-19T12:23:04.848Z,625
2016-06-19T12:24:04.227Z,625
2016-06-19T12:25:04.872Z,555
2016-06-19T12:26:04.891Z,495
2016-06-19T12:27:04.207Z,465
2016-06-19T12:28:03.616Z,455
2016-06-19T12:29:05.541Z,445
2016-06-19T12:30:04.873Z,440
2016-06-19T12:31:04.221Z,440
2016-06-19T12:32:04.895Z,445
2016-06-19T12:33:05.555Z,435
2016-06-19T12:34:04.262Z,425
2016-06-19T12:35:04.906Z,415
2016-06-19T12:36:04.925Z,415
2016-06-19T12:37:03.632Z,415
2016-06-19T12:38:04.932Z,410
2016-06-19T12:39:04.296Z,415
2016-06-19T12:40:03.642Z,410
2016-06-19T12:41:04.927Z,410
2016-06-19T12:42:02.993Z,410
2016-06-19T12:43:04.293Z,410
2016-06-19T12:44:04.954Z,410
2016-06-19T12:45:05.597Z,415
2016-06-19T12:46:04.336Z,415
2016-06-19T12:47:03.681Z,420
2016-06-19T12:48:04.951Z,420
2016-06-19T12:49:04.314Z,425
2016-06-19T12:50:04.333Z,425
2016-06-19T12:51:04.336Z,430
2016-06-19T12:52:03.699Z,430
2016-06-19T12:53:05.015Z,440
2016-06-19T12:54:05.691Z,445
2016-06-19T12:55:03.070Z,450
2016-06-19T12:56:04.354Z,445
2016-06-19T12:57:03.717Z,455
2016-06-19T12:58:04.361Z,465
2016-06-19T12:59:04.381Z,470
2016-06-19T13:00:04.414Z,475
2016-06-19T13:01:05.715Z,485
2016-06-19T13:02:05.125Z,485
2016-06-19T13:03:04.394Z,495
2016-06-19T13:04:05.053Z,510
2016-06-19T13:05:03.776Z,520
2016-06-19T13:06:03.780Z,535
2016-06-19T13:07:04.423Z,560
2016-06-19T13:08:04.411Z,615
2016-06-19T13:09:03.790Z,805
2016-06-19T13:10:05.089Z,1380
2016-06-19T13:11:05.734Z,2070
2016-06-19T13:12:03.784Z,2530
2016-06-19T13:13:03.803Z,2640
2016-06-19T13:14:03.807Z,2495
2016-06-19T13:15:03.811Z,2395
2016-06-19T13:16:05.782Z,2305
2016-06-19T13:17:04.489Z,2500
2016-06-19T13:18:03.839Z,2490
2016-06-19T13:19:03.190Z,2205
2016-06-19T13:20:04.494Z,2465
2016-06-19T13:21:05.156Z,2570
2016-06-19T13:22:05.741Z,2460
2016-06-19T13:23:04.542Z,2575
2016-06-19T13:24:04.530Z,2645
2016-06-19T13:25:05.176Z,2630
2016-06-19T13:26:05.869Z,2475
2016-06-19T13:27:04.561Z,2460
2016-06-19T13:28:03.923Z,2685
2016-06-19T13:29:04.568Z,2690
2016-06-19T13:30:04.556Z,2460
2016-06-19T13:31:05.247Z,2495
2016-06-19T13:32:04.595Z,2545
2016-06-19T13:33:03.302Z,2340
2016-06-19T13:34:03.946Z,2345
2016-06-19T13:35:04.607Z,2650
2016-06-19T13:36:05.267Z,2590
2016-06-19T13:37:03.990Z,2575
2016-06-19T13:38:04.618Z,2485
2016-06-19T13:39:04.637Z,2500
2016-06-19T13:40:04.640Z,2565
2016-06-19T13:41:04.629Z,2555
2016-06-19T13:42:04.007Z,2545
2016-06-19T13:43:03.995Z,2530
2016-06-19T13:44:05.967Z,2615
2016-06-19T13:45:05.314Z,2585
2016-06-19T13:46:04.677Z,2540
2016-06-19T13:47:03.368Z,2540
2016-06-19T13:48:05.340Z,2310
2016-06-19T13:49:06.624Z,2390
2016-06-19T13:50:04.691Z,2475
2016-06-19T13:51:03.413Z,2540
2016-06-19T13:52:04.714Z,2590
2016-06-19T13:53:04.701Z,2565
2016-06-19T13:54:06.002Z,2580
2016-06-19T13:55:04.067Z,2680
2016-06-19T13:56:03.431Z,2710
2016-06-19T13:57:04.074Z,2620
2016-06-19T13:58:03.438Z,2600
2016-06-19T13:59:06.050Z,2510
2016-06-19T14:00:04.742Z,2500
2016-06-19T14:01:05.415Z,2490
2016-06-19T14:02:06.061Z,2310
2016-06-19T14:03:04.767Z,2390
2016-06-19T14:04:04.771Z,2645
2016-06-19T14:05:04.790Z,2460
2016-06-19T14:06:04.137Z,2465
2016-06-19T14:07:04.141Z,2350
2016-06-19T14:08:04.159Z,2315
2016-06-19T14:09:04.147Z,2505
2016-06-19T14:10:05.447Z,2435
2016-06-19T14:11:05.467Z,2330
2016-06-19T14:12:04.158Z,2275
2016-06-19T14:13:04.161Z,2330